Bruno Marks — V7EK8 — position and weather

sailwx.info

Track history (hours):
 
Tides and Currents Weather Stations Pressure Air Temp Water Temp Dewpoint Dewpoint Depression Visibility Wind Speed Wind Dir Waves Ship Positions

Bruno Marks

Last reported at 2018-Apr-14 06:47 UTC. Time now 2018-Apr-22 16:24 UTC.
Position N 01°17' E 103°21'.
Warning: this ship's position is 8 days out of date.

Length 292 m; draft 6.3 m.

Type: Cargo ship. MMSI: 538006292.

Date/timePositionNaut miles runAvg speedWind from/ knotsBaromVisibWave heightAir tempDewpointWater temp
2018-Apr-14 06:47N 01°17' E 103°21'411.8
2018-Apr-14 06:26N 01°15' E 103°24'511.4
2018-Apr-14 05:59N 01°13' E 103°29'510.8
2018-Apr-14 05:30N 01°12' E 103°35'510.1
2018-Apr-14 05:00N 01°11' E 103°40'5 9.3
2018-Apr-14 04:30N 01°09' E 103°44'4 8.6
2018-Apr-14 04:00N 01°10' E 103°48'510.2
2018-Apr-14 03:30N 01°12' E 103°52'611.0
2018-Apr-14 02:58N 01°15' E 103°58'4 0.4
2018-Apr-13 16:03N 01°18' E 104°01'0 1.7
2018-Apr-13 15:58N 01°18' E 104°01'2 3.2
2018-Apr-13 15:29N 01°17' E 103°59'  
Track history (hours):
 
Tides and Currents Weather Stations Pressure Air Temp Water Temp Dewpoint Dewpoint Depression Visibility Wind Speed Wind Dir Waves Ship Positions

Bruno Marks

Last reported at 2018-Apr-14 06:47 UTC. Time now 2018-Apr-22 16:24 UTC.
Position N 01°17' E 103°21'.
Warning: this ship's position is 8 days out of date.

Length 292 m; draft 6.3 m.

Type: Cargo ship. MMSI: 538006292.

Date/timePositionNaut miles runAvg speedWind from/ knotsBaromVisibWave heightAir tempDewpointWater temp
2018-Apr-14 06:47N 01°17' E 103°21'411.8
2018-Apr-14 06:26N 01°15' E 103°24'511.4
2018-Apr-14 05:59N 01°13' E 103°29'510.8
2018-Apr-14 05:30N 01°12' E 103°35'510.1
2018-Apr-14 05:00N 01°11' E 103°40'5 9.3
2018-Apr-14 04:30N 01°09' E 103°44'4 8.6
2018-Apr-14 04:00N 01°10' E 103°48'510.2
2018-Apr-14 03:30N 01°12' E 103°52'611.0
2018-Apr-14 02:58N 01°15' E 103°58'4 0.4
2018-Apr-13 16:03N 01°18' E 104°01'0 1.7
2018-Apr-13 15:58N 01°18' E 104°01'2 3.2
2018-Apr-13 15:29N 01°17' E 103°59'  

Dump ship's entire track history